Time;durP1;ratioP1;P1;durP2;ratioP2;P2;SDS_P1;SDS_P2;PMS_P1;PMS_P2;Temp;Humidity;BMP_temperature;BMP_pressure;BME280_temperature;BME280_humidity;BME280_pressure;Samples;Min_cycle;Max_cycle;Signal;HPM_P1;HPM_P2
2023/04/28 00:00:03;;;;;;;5.60;4.45;;;;;;;7.59;50.38;101238.56;4975903;28;19918;-81
2023/04/28 00:02:28;;;;;;;6.85;4.28;;;;;;;7.57;49.75;101221.84;4976376;28;20041;-81
2023/04/28 00:04:53;;;;;;;;;;;;;;;7.58;50.09;101220.84;4982978;28;20030;-80
2023/04/28 00:07:19;;;;;;;6.77;4.43;;;;;;;7.54;50.50;101214.16;4978334;28;20420;-80
2023/04/28 00:09:44;;;;;;;;;;;;;;;7.51;50.29;101225.19;4974850;28;20471;-80
2023/04/28 00:12:10;;;;;;;7.53;4.38;;;;;;;7.47;50.37;101215.81;4973248;28;19918;-79
2023/04/28 00:14:36;;;;;;;7.32;3.95;;;;;;;7.47;50.42;101214.00;4975427;28;20804;-79
2023/04/28 00:17:02;;;;;;;;;;;;;;;7.45;50.36;101210.63;4974620;28;20039;-79
2023/04/28 00:19:27;;;;;;;6.38;4.03;;;;;;;7.47;50.38;101205.09;4973564;28;19922;-78
2023/04/28 00:21:53;;;;;;;;;;;;;;;7.47;50.11;101191.69;4975331;28;20474;-79
2023/04/28 00:24:18;;;;;;;8.30;3.87;;;;;;;7.49;50.18;101184.34;4973938;28;19925;-78
2023/04/28 00:26:43;;;;;;;;;;;;;;;7.46;50.03;101177.47;4972914;28;20026;-78
2023/04/28 00:29:09;;;;;;;10.13;4.80;;;;;;;7.40;50.17;101179.00;4975215;28;20336;-79
2023/04/28 00:31:34;;;;;;;;;;;;;;;7.41;50.41;101177.97;4975999;28;20367;-78
2023/04/28 00:34:00;;;;;;;7.90;4.45;;;;;;;7.37;50.40;101170.44;4972660;28;20420;-78
2023/04/28 00:36:25;;;;;;;;;;;;;;;7.38;50.81;101169.44;4976131;28;20393;-79
2023/04/28 00:38:50;;;;;;;5.43;3.83;;;;;;;7.37;50.60;101182.00;4973847;28;19925;-78
2023/04/28 00:41:16;;;;;;;;;;;;;;;7.40;50.71;101172.78;4973399;28;20382;-79
2023/04/28 00:43:45;;;;;;;7.27;4.10;;;;;;;7.38;50.59;101174.78;4974732;28;19925;-78
2023/04/28 00:46:16;;;;;;;9.10;4.03;;;;;;;7.37;51.26;101168.63;4973884;28;20774;-78
2023/04/28 00:48:41;;;;;;;6.03;4.22;;;;;;;7.35;50.70;101165.25;4955162;28;20031;-78
2023/04/28 00:51:07;;;;;;;;;;;;;;;7.31;51.52;101173.81;4973906;28;20508;-78
2023/04/28 00:53:32;;;;;;;8.63;4.10;;;;;;;7.29;51.17;101168.59;4957805;28;19922;-78
2023/04/28 00:56:16;;;;;;;;;;;;;;;7.28;51.24;101158.91;4960631;23;20174;-78
2023/04/28 00:59:18;;;;;;;6.25;4.20;;;;;;;7.28;51.80;101166.94;4938484;29;19925;-78
2023/04/28 01:01:50;;;;;;;7.90;4.07;;;;;;;7.23;51.53;101147.88;4935817;29;20024;-78
2023/04/28 01:04:16;;;;;;;5.22;3.65;;;;;;;7.31;51.43;101141.66;4923857;29;20039;-78
2023/04/28 01:06:42;;;;;;;7.63;4.00;;;;;;;7.28;51.75;101132.97;4944530;29;20076;-78
2023/04/28 01:09:07;;;;;;;;;;;;;;;7.28;51.79;101132.13;4934502;29;20024;-78
2023/04/28 01:11:32;;;;;;;5.53;3.83;;;;;;;7.30;51.39;101130.09;4938085;29;19956;-79
2023/04/28 01:13:58;;;;;;;;;;;;;;;7.30;51.43;101127.44;4948894;29;20035;-79
2023/04/28 01:16:25;;;;;;;5.40;3.80;;;;;;;7.30;51.28;101131.97;4950686;28;19946;-79
2023/04/28 01:18:51;;;;;;;5.95;3.97;;;;;;;7.33;51.73;101123.56;4937572;29;20028;-78
2023/04/28 01:21:24;;;;;;;;;;;;;;;7.28;51.94;101119.56;4933787;28;20043;-78
2023/04/28 01:23:50;;;;;;;5.28;4.20;;;;;;;7.26;52.05;101116.22;4922736;29;19922;-78
2023/04/28 01:26:16;;;;;;;5.75;3.85;;;;;;;7.33;51.79;101111.03;4935025;28;20030;-78
2023/04/28 01:28:41;;;;;;;;;;;;;;;7.34;51.94;101104.66;4935985;29;20040;-78
2023/04/28 01:31:07;;;;;;;7.90;4.03;;;;;;;7.34;52.07;101107.34;4984063;23;19923;-78
2023/04/28 01:33:32;;;;;;;;;;;;;;;7.32;52.28;101111.22;4935609;29;20139;-78
2023/04/28 01:35:57;;;;;;;6.63;4.40;;;;;;;7.31;52.17;101106.88;4936183;29;19914;-78
2023/04/28 01:38:23;;;;;;;;;;;;;;;7.29;52.41;101098.97;4947954;29;20037;-78
2023/04/28 01:40:48;;;;;;;6.03;4.23;;;;;;;7.30;52.49;101102.50;4936327;29;20363;-78
2023/04/28 01:43:13;;;;;;;;;;;;;;;7.30;52.55;101106.00;4935809;29;20046;-78
2023/04/28 01:45:39;;;;;;;7.50;4.17;;;;;;;7.31;52.82;101096.97;4935230;29;19946;-78
2023/04/28 01:50:40;;;;;;;8.98;3.92;;;;;;;7.29;52.75;101101.66;4966603;23;19947;-78
2023/04/28 01:53:06;;;;;;;7.63;4.38;;;;;;;7.31;52.57;101099.66;4954352;28;20391;-78
2023/04/28 01:55:31;;;;;;;;;;;;;;;7.34;53.18;101091.28;4953459;28;20078;-78
2023/04/28 01:57:57;;;;;;;9.03;4.60;;;;;;;7.32;53.24;101087.94;4950053;28;19925;-78
2023/04/28 02:00:23;;;;;;;7.13;3.92;;;;;;;7.30;53.52;101089.13;4954858;28;20778;-78
2023/04/28 02:02:48;;;;;;;;;;;;;;;7.31;53.66;101096.97;4948848;28;20570;-78
2023/04/28 02:05:13;;;;;;;7.03;3.85;;;;;;;7.28;54.47;101097.31;4939327;28;19919;-78
2023/04/28 02:07:39;;;;;;;;;;;;;;;7.24;55.41;101101.31;4957445;28;20038;-78
2023/04/28 02:46:17;;;;;;;8.05;5.05;;;;;;;6.81;62.47;101070.22;5483478;23;20047;-78
2023/04/28 02:48:42;;;;;;;;;;;;;;;6.79;62.59;101076.75;4952039;28;20081;-77
2023/04/28 02:51:07;;;;;;;8.70;5.37;;;;;;;6.82;61.74;101065.69;4951902;28;19918;-78
2023/04/28 02:53:33;;;;;;;9.40;5.85;;;;;;;6.76;62.67;101069.88;4952034;28;20668;-77
2023/04/28 02:55:58;;;;;;;;;;;;;;;6.79;62.68;101066.88;4951386;28;20043;-78
2023/04/28 02:58:23;;;;;;;7.73;5.40;;;;;;;6.73;63.17;101059.50;4953407;29;20005;-78
2023/04/28 03:00:49;;;;;;;11.75;6.07;;;;;;;6.67;62.61;101058.34;4952188;28;20332;-79
2023/04/28 03:03:14;;;;;;;9.55;5.65;;;;;;;6.70;62.89;101054.50;4951638;28;20035;-79
2023/04/28 03:05:39;;;;;;;;;;;;;;;6.72;62.64;101060.50;4952834;28;20031;-78
2023/04/28 03:08:05;;;;;;;7.00;5.05;;;;;;;6.74;62.58;101061.19;4951516;28;19918;-79
2023/04/28 03:10:30;;;;;;;8.32;5.63;;;;;;;6.72;63.10;101057.84;4950653;28;20035;-78
2023/04/28 03:12:56;;;;;;;;;;;;;;;6.74;63.07;101065.72;4947078;28;20031;-79
2023/04/28 03:15:21;;;;;;;8.33;5.50;;;;;;;6.73;64.04;101056.84;4950613;29;19918;-79
2023/04/28 03:17:46;;;;;;;;;;;;;;;6.71;64.68;101058.00;4953791;29;20034;-78
2023/04/28 03:20:12;;;;;;;13.63;6.33;;;;;;;6.71;64.13;101048.13;4953623;29;19922;-79
2023/04/28 03:22:37;;;;;;;9.55;5.75;;;;;;;6.67;64.23;101039.63;4951663;29;20993;-78
2023/04/28 03:25:03;;;;;;;10.47;5.67;;;;;;;6.69;64.00;101028.75;4952715;29;20372;-78
2023/04/28 03:27:28;;;;;;;;;;;;;;;6.71;63.67;101026.72;4952817;29;20302;-78
2023/04/28 03:29:55;;;;;;;11.93;5.83;;;;;;;6.70;64.11;101009.03;4952384;29;19919;-78
2023/04/28 03:32:20;;;;;;;9.00;5.90;;;;;;;6.71;63.89;101002.66;4950778;29;20110;-78
2023/04/28 03:34:45;;;;;;;;;;;;;;;6.70;63.92;100995.66;4954314;29;20034;-78
2023/04/28 03:37:11;;;;;;;9.70;5.80;;;;;;;6.67;63.94;100996.00;4952312;29;20351;-78
2023/04/28 03:39:36;;;;;;;;;;;;;;;6.65;64.08;100992.63;4951827;29;20093;-78
2023/04/28 03:42:01;;;;;;;11.07;6.07;;;;;;;6.64;64.08;100986.44;4953567;29;19918;-78
2023/04/28 03:44:27;;;;;;;;;;;;;;;6.62;64.68;100974.25;4952736;28;20035;-78
2023/04/28 03:46:52;;;;;;;8.13;5.73;;;;;;;6.63;64.67;100971.38;4949512;28;19933;-78
2023/04/28 03:49:17;;;;;;;;;;;;;;;6.61;64.58;100968.06;4937912;28;20027;-78
2023/04/28 03:51:43;;;;;;;8.97;5.60;;;;;;;6.62;65.12;100976.91;4949985;28;20378;-78
2023/04/28 03:54:08;;;;;;;;;;;;;;;6.56;64.77;100969.56;4949273;29;20399;-78
2023/04/28 03:56:33;;;;;;;12.17;6.23;;;;;;;6.58;64.87;100972.91;4944215;29;19946;-79
2023/04/28 03:58:58;;;;;;;;;;;;;;;6.58;65.53;100979.09;4952397;29;20039;-78
2023/04/28 04:01:24;;;;;;;9.33;6.17;;;;;;;6.57;65.23;100973.91;4951705;28;19925;-78
2023/04/28 04:03:49;;;;;;;;;;;;;;;6.60;65.29;100976.25;4949719;28;20035;-78
2023/04/28 04:06:15;;;;;;;8.53;6.13;;;;;;;6.63;65.14;100982.09;4952485;28;19930;-78
2023/04/28 04:08:40;;;;;;;9.05;6.60;;;;;;;6.65;65.01;100989.97;4922681;29;20288;-78
2023/04/28 04:11:05;;;;;;;;;;;;;;;6.67;65.12;100987.97;4948647;28;20027;-78
2023/04/28 04:13:31;;;;;;;10.33;6.37;;;;;;;6.67;65.62;100988.78;4953260;28;19994;-78
2023/04/28 04:15:56;;;;;;;;;;;;;;;6.66;65.70;100983.59;4949147;28;20098;-77
2023/04/28 04:18:22;;;;;;;9.60;6.50;;;;;;;6.62;66.32;100982.25;4948762;28;19919;-80
2023/04/28 04:20:48;;;;;;;;;;;;;;;6.63;66.47;100982.09;4951449;29;20042;-80
2023/04/28 04:23:14;;;;;;;9.35;6.80;;;;;;;6.60;66.93;100976.25;4943627;29;19922;-80
2023/04/28 04:25:39;;;;;;;;;;;;;;;6.61;67.22;100978.78;4940233;29;20142;-80
2023/04/28 04:28:04;;;;;;;11.32;7.07;;;;;;;6.65;67.08;100984.63;4938240;29;19957;-81
2023/04/28 04:30:30;;;;;;;;;;;;;;;6.67;66.86;100972.72;4952280;29;20101;-80
2023/04/28 04:32:55;;;;;;;12.55;6.85;;;;;;;6.68;66.76;100974.41;4943042;29;19925;-81
2023/04/28 04:35:20;;;;;;;;;;;;;;;6.69;67.25;100961.88;4945861;29;20490;-79
2023/04/28 04:37:46;;;;;;;11.83;7.27;;;;;;;6.67;67.91;100966.56;4937250;29;19969;-81
2023/04/28 04:40:11;;;;;;;;;;;;;;;6.64;68.36;100961.53;4935240;29;20037;-80
2023/04/28 04:42:37;;;;;;;11.50;7.28;;;;;;;6.67;68.00;100966.56;4954116;29;19977;-79
2023/04/28 04:45:02;;;;;;;;;;;;;;;6.67;68.45;100963.88;4955558;29;20034;-80
2023/04/28 04:47:27;;;;;;;11.50;7.00;;;;;;;6.68;68.40;100957.53;4950779;29;19964;-81
2023/04/28 04:49:52;;;;;;;;;;;;;;;6.66;68.77;100954.19;4956250;29;20718;-80
2023/04/28 04:52:18;;;;;;;11.73;7.40;;;;;;;6.70;68.35;100946.66;4955900;29;20010;-77
2023/04/28 04:54:43;;;;;;;;;;;;;;;6.68;68.75;100946.84;4944659;28;20020;-79
2023/04/28 04:57:09;;;;;;;14.27;7.05;;;;;;;6.71;68.48;100941.13;4948534;28;20370;-79
2023/04/28 04:59:34;;;;;;;;;;;;;;;6.75;68.81;100946.97;4954764;28;20034;-79
2023/04/28 05:01:59;;;;;;;14.17;8.13;;;;;;;6.75;68.99;100949.66;4955575;29;19925;-79
2023/04/28 05:04:25;;;;;;;;;;;;;;;6.81;69.65;100955.16;4956231;29;20036;-80
2023/04/28 05:06:50;;;;;;;12.70;8.00;;;;;;;6.82;68.71;100951.50;4955815;29;19969;-80
2023/04/28 05:09:15;;;;;;;;;;;;;;;6.89;69.41;100948.13;4952669;28;20027;-80
2023/04/28 05:11:41;;;;;;;9.63;7.45;;;;;;;6.96;69.14;100949.13;4952532;29;19915;-80
2023/04/28 05:14:06;;;;;;;12.07;7.93;;;;;;;6.97;69.21;100940.91;4954971;29;20489;-79
2023/04/28 05:16:31;;;;;;;;;;;;;;;6.98;69.10;100937.22;4953826;28;20134;-79
2023/04/28 05:18:57;;;;;;;13.00;7.47;;;;;;;7.03;69.64;100934.06;4952362;29;20331;-79
2023/04/28 05:21:22;;;;;;;13.45;7.90;;;;;;;7.03;70.13;100936.72;4954196;29;20364;-81
2023/04/28 05:23:47;;;;;;;;;;;;;;;7.15;69.78;100947.88;4954311;28;20038;-79
2023/04/28 05:26:13;;;;;;;15.33;8.67;;;;;;;7.12;70.09;100938.34;4953578;28;19976;-80
2023/04/28 05:28:40;;;;;;;12.80;8.68;;;;;;;7.19;70.40;100937.69;4951486;28;20350;-80
2023/04/28 05:31:05;;;;;;;13.98;9.55;;;;;;;7.25;70.47;100928.94;4951692;28;20653;-80
2023/04/28 05:33:33;;;;;;;;;;;;;;;7.27;70.67;100925.09;4955807;29;20019;-80
2023/04/28 05:35:58;;;;;;;12.80;8.75;;;;;;;7.31;71.19;100917.53;4953301;28;20600;-80
2023/04/28 05:38:24;;;;;;;;;;;;;;;7.37;71.58;100924.91;4954191;28;20035;-80
2023/04/28 05:40:49;;;;;;;13.15;9.25;;;;;;;7.46;71.19;100923.00;4953665;28;19925;-80
2023/04/28 05:43:15;;;;;;;;;;;;;;;7.51;71.68;100915.25;4948768;28;20050;-80
2023/04/28 05:45:40;;;;;;;14.03;9.57;;;;;;;7.57;71.96;100909.22;4943302;29;20378;-80
2023/04/28 05:48:06;;;;;;;;;;;;;;;7.62;72.15;100910.53;4952005;28;20286;-81
2023/04/28 05:50:31;;;;;;;14.98;10.50;;;;;;;7.65;72.16;100919.06;4954533;29;20374;-80
2023/04/28 05:52:59;;;;;;;;;;;;;;;7.68;72.29;100913.34;4952539;28;20394;-79
2023/04/28 05:55:25;;;;;;;16.05;10.20;;;;;;;7.72;72.61;100909.31;4955376;29;19914;-81
2023/04/28 05:57:50;;;;;;;;;;;;;;;7.79;73.29;100895.19;4937077;29;20482;-80
2023/04/28 06:00:16;;;;;;;16.50;10.70;;;;;;;7.84;73.04;100893.66;4953788;29;19925;-81
2023/04/28 06:02:41;;;;;;;;;;;;;;;8.01;73.23;100885.50;4954315;28;20023;-79
2023/04/28 06:05:07;;;;;;;19.87;10.63;;;;;;;8.12;73.07;100878.88;4952635;28;19924;-79
2023/04/28 06:07:33;;;;;;;16.45;11.15;;;;;;;8.25;72.70;100879.09;4951818;28;20491;-80
2023/04/28 06:09:58;;;;;;;;;;;;;;;8.34;73.29;100882.56;4920697;29;20040;-76
2023/04/28 06:12:23;;;;;;;19.70;11.70;;;;;;;8.40;73.47;100880.97;4952530;29;19918;-78
2023/04/28 06:14:50;;;;;;;;;;;;;;;8.48;73.32;100879.09;4945576;29;20360;-78
2023/04/28 06:17:16;;;;;;;17.65;10.80;;;;;;;8.56;72.83;100888.91;4941258;28;19922;-75
2023/04/28 06:19:41;;;;;;;;;;;;;;;8.64;73.06;100891.53;4984324;23;20562;-81
2023/04/28 06:22:06;;;;;;;16.17;11.70;;;;;;;8.69;72.18;100900.84;4934698;29;19915;-81
2023/04/28 06:24:32;;;;;;;;;;;;;;;8.68;73.15;100904.56;4927939;29;20034;-80
2023/04/28 06:26:57;;;;;;;18.13;10.82;;;;;;;8.66;73.28;100904.75;4927898;29;20363;-80
2023/04/28 06:29:23;;;;;;;;;;;;;;;8.68;72.94;100905.41;4932601;29;20030;-83
2023/04/28 06:31:48;;;;;;;14.73;10.32;;;;;;;8.63;73.61;100914.00;4933130;29;19914;-79
2023/04/28 06:34:13;;;;;;;;;;;;;;;8.60;74.03;100913.53;4940190;29;20027;-80
2023/04/28 06:36:39;;;;;;;16.17;11.23;;;;;;;8.62;73.58;100917.72;4946850;29;19922;-79
2023/04/28 06:39:04;;;;;;;;;;;;;;;8.66;73.29;100918.16;4932158;29;20644;-80
2023/04/28 06:41:30;;;;;;;17.37;11.20;;;;;;;8.65;73.80;100911.94;4946224;29;19918;-78
2023/04/28 06:43:55;;;;;;;;;;;;;;;8.59;74.70;100922.59;4945791;28;20773;-80
2023/04/28 06:46:21;;;;;;;15.60;10.93;;;;;;;8.55;74.95;100932.03;4930245;29;19921;-82
2023/04/28 06:48:46;;;;;;;;;;;;;;;8.68;75.12;100920.66;4946459;28;20309;-81
2023/04/28 06:51:13;;;;;;;21.50;12.43;;;;;;;8.67;75.90;100929.72;4929806;29;20350;-82
2023/04/28 06:53:38;;;;;;;18.67;12.45;;;;;;;8.82;76.13;100924.38;4925069;29;20028;-82
2023/04/28 06:56:04;;;;;;;;;;;;;;;8.80;76.54;100920.03;4928627;29;20036;-84
2023/04/28 06:58:29;;;;;;;21.95;13.73;;;;;;;8.68;76.94;100910.78;4934125;29;19965;-84
2023/04/28 07:00:54;;;;;;;;;;;;;;;8.57;78.33;100908.50;4926132;29;20028;-83
2023/04/28 07:03:21;;;;;;;21.52;13.85;;;;;;;8.55;78.92;100906.03;4928360;29;19927;-82
2023/04/28 07:05:47;;;;;;;23.20;15.02;;;;;;;8.42;80.54;100911.97;4939101;29;20035;-81
2023/04/28 07:08:12;;;;;;;;;;;;;;;8.42;81.31;100889.69;4930830;29;20054;-82
2023/04/28 07:10:37;;;;;;;22.00;14.27;;;;;;;8.47;81.48;100868.53;4929404;29;19918;-82
2023/04/28 07:13:03;;;;;;;;;;;;;;;8.42;81.94;100882.47;4928952;29;20039;-82
2023/04/28 07:15:28;;;;;;;25.47;15.23;;;;;;;8.47;82.03;100890.81;4933655;29;19969;-82
2023/04/28 07:17:53;;;;;;;23.25;14.38;;;;;;;8.57;82.10;100887.91;4930618;28;20031;-81
2023/04/28 07:20:19;;;;;;;;;;;;;;;8.65;81.72;100895.84;4946278;29;20043;-80
2023/04/28 07:25:20;;;;;;;24.73;15.13;;;;;;;8.84;80.90;100893.63;5907876;23;20309;-81
2023/04/28 07:28:08;;;;;;;;;;;;;;;8.90;81.15;100895.59;4968957;28;20026;-80
2023/04/28 07:36:53;;;;;;;20.60;14.40;;;;;;;9.40;80.64;100900.38;5354022;23;20223;-78
2023/04/28 07:39:18;;;;;;;;;;;;;;;9.45;80.14;100895.28;4930012;29;20122;-78
2023/04/28 07:41:43;;;;;;;21.63;14.90;;;;;;;9.51;80.52;100907.97;4945194;29;19977;-78
2023/04/28 07:44:09;;;;;;;19.23;15.00;;;;;;;9.58;80.93;100904.50;4948717;29;20491;-79
2023/04/28 07:46:34;;;;;;;;;;;;;;;9.75;80.25;100899.75;4948001;29;20024;-78
2023/04/28 07:48:59;;;;;;;22.20;15.60;;;;;;;9.75;80.23;100897.88;4947832;29;20333;-79
2023/04/28 07:51:25;;;;;;;;;;;;;;;9.83;80.23;100895.09;4970492;28;20357;-79
2023/04/28 07:53:51;;;;;;;21.67;13.90;;;;;;;9.85;80.04;100892.19;4951198;28;20259;-79
2023/04/28 07:56:16;;;;;;;21.77;14.18;;;;;;;9.80;79.96;100890.09;4949644;28;20035;-78
2023/04/28 07:58:45;;;;;;;22.70;13.85;;;;;;;9.73;79.88;100886.47;4946803;28;20035;-79
2023/04/28 08:01:10;;;;;;;18.48;13.43;;;;;;;9.81;80.51;100888.22;4954168;29;20019;-78
2023/04/28 08:03:36;;;;;;;18.00;13.98;;;;;;;9.90;80.00;100880.84;4953939;29;20062;-78
2023/04/28 08:06:01;;;;;;;19.23;14.48;;;;;;;9.96;80.04;100875.56;4955528;29;20383;-80
2023/04/28 08:08:26;;;;;;;;;;;;;;;10.06;79.86;100885.97;4956745;28;20041;-79
2023/04/28 08:10:53;;;;;;;22.90;14.27;;;;;;;10.02;79.60;100873.97;4954650;29;20420;-79
2023/04/28 08:13:18;;;;;;;22.95;15.10;;;;;;;10.11;80.09;100880.03;4948978;29;20082;-79
2023/04/28 08:15:44;;;;;;;24.63;16.88;;;;;;;10.15;79.92;100879.44;4950140;29;20376;-79
2023/04/28 08:18:09;;;;;;;20.23;14.77;;;;;;;10.19;79.13;100884.44;4931773;29;20030;-79
2023/04/28 08:20:35;;;;;;;23.40;15.90;;;;;;;10.15;79.59;100887.53;4945648;28;20026;-79
2023/04/28 08:23:00;;;;;;;21.98;16.90;;;;;;;10.24;80.00;100884.69;4954320;28;20076;-79
2023/04/28 08:25:25;;;;;;;26.25;16.77;;;;;;;10.27;79.87;100876.22;4952534;29;20035;-80
2023/04/28 08:27:51;;;;;;;24.00;17.35;;;;;;;10.19;79.50;100874.50;4937232;29;20098;-80
2023/04/28 08:30:16;;;;;;;23.60;16.73;;;;;;;10.34;79.60;100881.66;4954375;29;20030;-80
2023/04/28 08:32:42;;;;;;;19.35;15.18;;;;;;;10.46;78.57;100885.53;4954924;29;20030;-79
2023/04/28 08:35:07;;;;;;;18.58;14.00;;;;;;;10.64;78.71;100885.03;4919165;29;20365;-79
2023/04/28 08:37:33;;;;;;;20.85;14.85;;;;;;;10.76;78.31;100875.41;4947336;29;20206;-79
2023/04/28 08:40:01;;;;;;;19.50;14.50;;;;;;;10.90;77.33;100880.84;4917704;29;20034;-79
2023/04/28 08:42:30;;;;;;;20.67;14.98;;;;;;;10.92;77.27;100874.22;4950379;29;20533;-79
2023/04/28 08:44:58;;;;;;;23.33;16.23;;;;;;;11.12;77.37;100880.75;4955037;28;20134;-79
2023/04/28 08:47:37;;;;;;;21.55;15.82;;;;;;;11.30;77.30;100880.22;4963261;28;20019;-79
2023/04/28 08:50:06;;;;;;;21.67;14.27;;;;;;;11.47;77.08;100872.63;4952997;29;20667;-81
2023/04/28 08:52:33;;;;;;;17.30;13.65;;;;;;;11.56;76.12;100873.25;4925162;29;20063;-80
2023/04/28 08:55:00;;;;;;;17.98;14.25;;;;;;;11.76;75.94;100876.81;4949754;28;20175;-80
2023/04/28 08:57:27;;;;;;;18.38;13.82;;;;;;;12.05;75.00;100868.59;4948291;29;20054;-79
2023/04/28 08:59:52;;;;;;;15.68;13.00;;;;;;;12.02;74.26;100871.69;4932695;29;20027;-77
2023/04/28 09:02:17;;;;;;;18.00;12.35;;;;;;;12.20;72.10;100873.81;4953739;28;20498;-78
2023/04/28 09:04:43;;;;;;;20.20;13.13;;;;;;;12.08;73.19;100871.72;4933860;29;20043;-76
2023/04/28 09:07:11;;;;;;;16.50;12.25;;;;;;;12.12;73.88;100867.56;4953637;29;20027;-77
2023/04/28 09:09:37;;;;;;;15.38;12.85;;;;;;;12.34;73.35;100863.84;4949602;29;20040;-76
2023/04/28 09:12:03;;;;;;;17.40;12.43;;;;;;;12.44;72.12;100859.66;4948042;29;20031;-77
2023/04/28 09:14:30;;;;;;;14.00;11.38;;;;;;;12.71;71.04;100858.78;4953595;28;20240;-77
2023/04/28 09:16:55;;;;;;;15.02;12.10;;;;;;;12.91;70.27;100863.31;4954306;29;20534;-78
2023/04/28 09:19:21;;;;;;;17.00;12.68;;;;;;;12.82;70.59;100863.56;4954201;29;20082;-78
2023/04/28 09:21:53;;;;;;;17.25;12.80;;;;;;;12.66;70.42;100859.41;4945788;29;20392;-78
2023/04/28 09:24:35;;;;;;;17.48;11.65;;;;;;;12.98;71.38;100858.72;4949086;29;20376;-79
2023/04/28 09:27:02;;;;;;;15.50;11.35;;;;;;;13.33;69.95;100850.28;4944847;29;20515;-78
2023/04/28 09:29:28;;;;;;;17.10;11.82;;;;;;;13.72;67.54;100859.25;4969646;28;20039;-79
2023/04/28 09:31:53;;;;;;;14.13;12.00;;;;;;;13.86;67.06;100851.03;4953726;28;20031;-78
2023/04/28 09:34:20;;;;;;;14.90;11.07;;;;;;;13.47;68.46;100854.59;4950489;29;20037;-78
2023/04/28 09:36:46;;;;;;;18.25;12.48;;;;;;;13.24;69.50;100854.28;4952820;29;20023;-78
2023/04/28 09:39:11;;;;;;;18.13;13.68;;;;;;;12.97;71.43;100859.78;4954016;29;20047;-80
2023/04/28 09:41:44;;;;;;;18.67;14.32;;;;;;;12.48;73.92;100860.09;4930754;29;20081;-81
2023/04/28 09:44:20;;;;;;;20.17;14.52;;;;;;;12.53;75.10;100846.75;4949019;29;20403;-78
2023/04/28 09:46:46;;;;;;;16.33;13.63;;;;;;;12.78;74.81;100853.38;4954173;28;20046;-78
2023/04/28 09:49:12;;;;;;;17.52;15.63;;;;;;;12.72;75.88;100845.09;4945618;29;20451;-79
2023/04/28 09:51:38;;;;;;;18.55;15.15;;;;;;;12.76;74.55;100840.06;4951686;29;20035;-78
2023/04/28 09:54:03;;;;;;;20.15;15.35;;;;;;;13.11;74.06;100842.47;4953326;29;20029;-79
2023/04/28 09:56:29;;;;;;;19.15;14.80;;;;;;;13.26;72.79;100850.31;4946533;29;20030;-79
2023/04/28 09:58:58;;;;;;;16.70;13.60;;;;;;;13.18;74.04;100843.28;4953761;29;20484;-79
2023/04/28 10:01:27;;;;;;;18.27;15.05;;;;;;;13.28;74.27;100836.56;4952138;28;20138;-79
2023/04/28 10:03:55;;;;;;;17.83;14.70;;;;;;;13.33;75.51;100836.75;4947394;28;20035;-80
2023/04/28 10:06:20;;;;;;;17.00;13.32;;;;;;;13.75;72.94;100831.75;5218138;23;20455;-80
2023/04/28 10:08:47;;;;;;;17.40;13.40;;;;;;;13.91;73.38;100834.97;4955349;28;20029;-80
2023/04/28 10:11:15;;;;;;;19.80;13.70;;;;;;;14.24;70.30;100831.16;4953604;28;20027;-79
2023/04/28 10:13:41;;;;;;;17.25;13.02;;;;;;;14.25;71.09;100835.53;4949704;28;20042;-80
2023/04/28 10:16:06;;;;;;;17.85;14.85;;;;;;;14.34;71.89;100831.47;4955901;28;20031;-82
2023/04/28 10:18:33;;;;;;;19.17;15.40;;;;;;;14.09;72.12;100826.09;4972777;28;20470;-80
2023/04/28 10:20:59;;;;;;;18.67;15.73;;;;;;;14.03;72.21;100822.38;4959491;28;20077;-81
2023/04/28 10:23:40;;;;;;;18.50;13.82;;;;;;;14.41;69.48;100831.41;4964979;28;20031;-81
2023/04/28 10:26:09;;;;;;;17.33;13.18;;;;;;;14.53;69.31;100823.38;4972469;28;20122;-80
2023/04/28 10:28:34;;;;;;;20.52;14.43;;;;;;;14.59;69.45;100832.50;4939141;28;20305;-80
2023/04/28 10:31:16;;;;;;;18.13;14.55;;;;;;;14.40;69.42;100829.75;4937944;28;20169;-80
2023/04/28 10:33:42;;;;;;;18.35;14.98;;;;;;;14.21;71.11;100831.59;4953791;29;20039;-80
2023/04/28 10:36:07;;;;;;;19.23;15.90;;;;;;;13.97;70.48;100839.50;5385388;23;20048;-80
2023/04/28 10:38:33;;;;;;;20.40;15.73;;;;;;;13.82;71.96;100845.25;4968514;28;20254;-82
2023/04/28 10:41:01;;;;;;;24.05;16.92;;;;;;;13.62;72.54;100829.13;4972264;28;20505;-81
2023/04/28 10:43:27;;;;;;;20.75;15.93;;;;;;;13.63;72.52;100822.66;4969002;28;20047;-81
2023/04/28 10:46:11;;;;;;;21.10;16.27;;;;;;;13.75;72.17;100822.81;5214684;23;20408;-81
2023/04/28 10:48:46;;;;;;;20.67;16.27;;;;;;;13.84;70.94;100817.94;4935609;29;20063;-82
2023/04/28 10:51:15;;;;;;;21.50;15.93;;;;;;;13.89;71.63;100826.25;4943941;29;20423;-81
2023/04/28 10:53:47;;;;;;;20.88;16.08;;;;;;;13.79;72.06;100827.56;4947048;29;20094;-81
2023/04/28 10:56:20;;;;;;;21.98;17.30;;;;;;;13.75;72.81;100823.66;4936099;29;20027;-81
2023/04/28 10:58:49;;;;;;;22.23;18.10;;;;;;;13.61;73.36;100828.31;4931881;29;20051;-82
2023/04/28 11:01:17;;;;;;;22.35;19.38;;;;;;;13.37;73.34;100818.22;4935767;29;20031;-81
2023/04/28 11:03:45;;;;;;;22.65;18.20;;;;;;;13.56;73.62;100821.91;4946294;29;20039;-81
2023/04/28 11:06:36;;;;;;;25.23;18.83;;;;;;;13.73;73.32;100816.78;4941334;29;20043;-81
2023/04/28 11:09:13;;;;;;;23.55;17.52;;;;;;;14.07;70.62;100812.78;4939556;29;20028;-81
2023/04/28 11:11:57;;;;;;;20.58;16.25;;;;;;;14.14;70.79;100820.00;4947979;29;20106;-81
2023/04/28 11:14:32;;;;;;;19.42;15.85;;;;;;;14.07;70.99;100807.38;4943986;29;20046;-81
2023/04/28 11:17:02;;;;;;;18.90;16.90;;;;;;;14.14;71.08;100806.47;4942230;29;20102;-81
2023/04/28 11:19:44;;;;;;;21.27;16.08;;;;;;;14.12;70.97;100811.28;4948873;29;20035;-81
2023/04/28 11:22:17;;;;;;;21.08;17.17;;;;;;;13.92;71.55;100804.16;4949935;28;20042;-81
2023/04/28 11:25:08;;;;;;;18.75;16.75;;;;;;;13.95;72.67;100801.84;4950336;29;20417;-80
2023/04/28 11:27:36;;;;;;;20.33;17.42;;;;;;;13.96;72.44;100813.47;4946477;29;20431;-81
2023/04/28 11:30:03;;;;;;;22.95;17.20;;;;;;;13.90;72.60;100808.97;4947948;29;20031;-80
2023/04/28 11:32:33;;;;;;;22.38;17.65;;;;;;;13.94;72.51;100802.88;4950085;29;20046;-81
2023/04/28 11:34:58;;;;;;;21.52;19.00;;;;;;;13.88;73.03;100805.66;4950754;29;20023;-81
2023/04/28 11:37:24;;;;;;;21.23;17.80;;;;;;;13.92;73.02;100809.56;4951660;29;20527;-80
2023/04/28 11:39:49;;;;;;;30.67;17.55;;;;;;;13.91;73.92;100802.50;4951404;29;20090;-80
2023/04/28 11:42:16;;;;;;;21.20;17.65;;;;;;;13.86;74.05;100811.25;4951249;29;20094;-80
2023/04/28 11:44:41;;;;;;;22.42;18.58;;;;;;;13.68;74.93;100803.91;4951460;29;20439;-81
2023/04/28 11:47:06;;;;;;;22.23;18.40;;;;;;;13.68;75.84;100814.72;4935333;29;20027;-81
2023/04/28 11:49:48;;;;;;;21.02;17.25;;;;;;;13.79;75.41;100814.03;4950259;29;20038;-81
2023/04/28 11:52:13;;;;;;;22.60;17.40;;;;;;;13.77;75.96;100810.69;4932375;29;20054;-81
2023/04/28 11:54:44;;;;;;;21.02;17.88;;;;;;;13.65;76.28;100815.16;4941512;29;20027;-82
2023/04/28 11:57:16;;;;;;;23.38;17.17;;;;;;;13.67;76.02;100813.06;4950416;29;20081;-80
2023/04/28 11:59:42;;;;;;;19.92;17.40;;;;;;;13.66;76.91;100821.41;4949113;29;20290;-80
2023/04/28 12:02:07;;;;;;;22.58;18.58;;;;;;;13.80;77.46;100814.88;5133349;23;20232;-82
2023/04/28 12:04:37;;;;;;;21.20;17.35;;;;;;;13.87;76.18;100817.53;4971331;28;20023;-80
2023/04/28 12:07:09;;;;;;;19.60;17.45;;;;;;;13.83;76.68;100819.84;4969975;28;20070;-80
2023/04/28 12:09:35;;;;;;;22.02;17.45;;;;;;;13.73;77.36;100820.31;4969212;28;20022;-82
2023/04/28 12:12:04;;;;;;;23.88;17.50;;;;;;;13.68;77.33;100808.50;4950995;28;20122;-80
2023/04/28 12:14:52;;;;;;;22.23;17.38;;;;;;;13.67;77.01;100823.91;4964710;28;20030;-82
2023/04/28 12:17:27;;;;;;;24.67;18.10;;;;;;;13.70;77.77;100818.06;4971496;28;20130;-83
2023/04/28 12:19:54;;;;;;;22.03;18.10;;;;;;;13.79;78.28;100814.03;4971080;28;20500;-82
2023/04/28 12:22:19;;;;;;;27.35;18.40;;;;;;;13.83;78.82;100813.59;4966118;28;20039;-82
2023/04/28 12:24:45;;;;;;;21.50;16.65;;;;;;;14.13;77.61;100813.75;4942958;29;20027;-82